Погода Капривина неделю

Хардап, Намибия

20 - 26 июля
  • 20июля
    Сегодня
    +13°
    +31°
    Ясно и безоблачно
    ВремяПогодаТемператураВлажностьДавлениеВетер, м/сВероятность осадков
    02:00Ясно и безоблачно+14°C33 %694 мм2.8 м/с0 %
    05:00Ясно и безоблачно+11°C40 %693 мм2.7 м/с0 %
    08:00Ясно и безоблачно+16°C41 %695 мм0.1 м/с0 %
    11:00Ясно и безоблачно+27°C16 %697 мм0.4 м/с0 %
    14:00Ясно и безоблачно+30°C11 %696 мм0.7 м/с0 %
    17:00Ясно и безоблачно+29°C11 %695 мм1.7 м/с0 %
    20:00Ясно и безоблачно+22°C18 %694 мм2.2 м/с0 %
    23:00Ясно и безоблачно+19°C24 %694 мм0.5 м/с0 %
  • 21июля
    Воскресенье
    +15°
    +32°
    Ясно и безоблачно
    ВремяПогодаТемператураВлажностьДавлениеВетер, м/сВероятность осадков
    02:00Ясно и безоблачно+16°C37 %694 мм2.0 м/с0 %
    05:00Ясно и безоблачно+15°C43 %693 мм2.5 м/с0 %
    08:00Ясно и безоблачно+16°C44 %696 мм0.2 м/с0 %
    11:00Ясно и безоблачно+28°C18 %698 мм0.4 м/с0 %
    14:00Ясно и безоблачно+31°C11 %696 мм0.7 м/с0 %
    17:00Ясно и безоблачно+30°C11 %695 мм1.9 м/с0 %
    20:00Ясно и безоблачно+25°C16 %695 мм1.2 м/с0 %
    23:00Ясно и безоблачно+18°C30 %694 мм2.7 м/с0 %
  • 22июля
    Понедельник
    +15°
    +32°
    Ясно и безоблачно
    ВремяПогодаТемператураВлажностьДавлениеВетер, м/сВероятность осадков
    02:00Ясно и безоблачно+17°C35 %694 мм2.5 м/с0 %
    05:00Ясно и безоблачно+15°C47 %694 мм2.3 м/с0 %
    08:00Ясно и безоблачно+18°C40 %697 мм0.2 м/с0 %
    11:00Ясно и безоблачно+29°C17 %698 мм0.5 м/с0 %
    14:00Ясно и безоблачно+32°C12 %697 мм0.7 м/с0 %
    17:00Ясно и безоблачно+31°C11 %696 мм1.8 м/с0 %
    20:00Ясно и безоблачно+23°C17 %695 мм2.7 м/с0 %
    23:00Ясно и безоблачно+20°C23 %696 мм2.9 м/с0 %
  • 23июля
    Вторник
    +14°
    +32°
    Ясно и безоблачно
    ВремяПогодаТемператураВлажностьДавлениеВетер, м/сВероятность осадков
    02:00Ясно и безоблачно+18°C36 %696 мм2.9 м/с0 %
    05:00Ясно и безоблачно+16°C49 %696 мм2.4 м/с0 %
    08:00Ясно и безоблачно+17°C44 %698 мм0.2 м/с0 %
    11:00Ясно и безоблачно+28°C16 %700 мм0.4 м/с0 %
    14:00Ясно и безоблачно+31°C10 %698 мм0.8 м/с0 %
    17:00Ясно и безоблачно+30°C11 %697 мм2.4 м/с0 %
    20:00Ясно и безоблачно+26°C15 %697 мм1.1 м/с0 %
    23:00Ясно и безоблачно+21°C24 %697 мм3.2 м/с0 %
Мы используем cookies
Соглашаюсь